地図

経路データ

SID SEASON NUMBER BASIN SUBBASIN NAME ISO_TIME NATURE LAT LON WMO_WIND WMO_PRES WMO_AGENCY TRACK_TYPE DIST2LAND LANDFALL IFLAG USA_AGENCY USA_ATCF_ID USA_LAT USA_LON USA_RECORD USA_STATUS USA_WIND USA_PRES USA_SSHS USA_R34_NE USA_R34_SE USA_R34_SW USA_R34_NW USA_R50_NE USA_R50_SE USA_R50_SW USA_R50_NW USA_R64_NE USA_R64_SE USA_R64_SW USA_R64_NW USA_POCI USA_ROCI USA_RMW USA_EYE TOKYO_LAT TOKYO_LON TOKYO_GRADE TOKYO_WIND TOKYO_PRES TOKYO_R50_DIR TOKYO_R50_LONG TOKYO_R50_SHORT TOKYO_R30_DIR TOKYO_R30_LONG TOKYO_R30_SHORT TOKYO_LAND CMA_LAT CMA_LON CMA_CAT CMA_WIND CMA_PRES HKO_LAT HKO_LON HKO_CAT HKO_WIND HKO_PRES NEWDELHI_LAT NEWDELHI_LON NEWDELHI_GRADE NEWDELHI_WIND NEWDELHI_PRES NEWDELHI_CI NEWDELHI_DP NEWDELHI_POCI REUNION_LAT REUNION_LON REUNION_TYPE REUNION_WIND REUNION_PRES REUNION_TNUM REUNION_CI REUNION_RMW REUNION_R34_NE REUNION_R34_SE REUNION_R34_SW REUNION_R34_NW REUNION_R50_NE REUNION_R50_SE REUNION_R50_SW REUNION_R50_NW REUNION_R64_NE REUNION_R64_SE REUNION_R64_SW REUNION_R64_NW BOM_LAT BOM_LON BOM_TYPE BOM_WIND BOM_PRES BOM_TNUM BOM_CI BOM_RMW BOM_R34_NE BOM_R34_SE BOM_R34_SW BOM_R34_NW BOM_R50_NE BOM_R50_SE BOM_R50_SW BOM_R50_NW BOM_R64_NE BOM_R64_SE BOM_R64_SW BOM_R64_NW BOM_ROCI BOM_POCI BOM_EYE BOM_POS_METHOD BOM_PRES_METHOD NADI_LAT NADI_LON NADI_CAT NADI_WIND NADI_PRES WELLINGTON_LAT WELLINGTON_LON WELLINGTON_WIND WELLINGTON_PRES DS824_LAT DS824_LON DS824_STAGE DS824_WIND DS824_PRES TD9636_LAT TD9636_LON TD9636_STAGE TD9636_WIND TD9636_PRES TD9635_LAT TD9635_LON TD9635_WIND TD9635_PRES TD9635_ROCI NEUMANN_LAT NEUMANN_LON NEUMANN_CLASS NEUMANN_WIND NEUMANN_PRES MLC_LAT MLC_LON MLC_CLASS MLC_WIND MLC_PRES USA_GUST BOM_GUST BOM_GUST_PER REUNION_GUST REUNION_GUST_PER USA_SEAHGT USA_SEARAD_NE USA_SEARAD_SE USA_SEARAD_SW USA_SEARAD_NW STORM_SPEED STORM_DIR
2000260N15308 2000 85 NA NA HELENE 2000-09-15 12:00:00 TS 14.9000 -52.2000 25 1010 hurdat_atl main 1031 1029 O_____________ hurdat_atl AL122000 14.9000 -52.2000 TD 25 1010 -1 9 297
2000260N15308 2000 85 NA NA HELENE 2000-09-15 15:00:00 TS 15.1077 -52.6248 main 1035 1008 P_____________ AL122000 15.1077 -52.6248 TD 25 1010 -1 9 297
2000260N15308 2000 85 NA NA HELENE 2000-09-15 18:00:00 TS 15.3000 -53.0000 25 1010 hurdat_atl main 1008 986 O_____________ hurdat_atl AL122000 15.3000 -53.0000 TD 25 1010 -1 7 299
2000260N15308 2000 85 NA NA HELENE 2000-09-15 21:00:00 TS 15.4648 -53.3001 main 992 971 P_____________ AL122000 15.4648 -53.3001 TD 25 1010 -1 7 297
2000260N15308 2000 85 NA NA HELENE 2000-09-16 00:00:00 TS 15.6000 -53.6000 25 1010 hurdat_atl main 971 951 O_____________ hurdat_atl AL122000 15.6000 -53.6000 TD 25 1010 -1 7 291
2000260N15308 2000 85 NA NA HELENE 2000-09-16 03:00:00 TS 15.6996 -53.9327 main 951 914 P_____________ AL122000 15.6996 -53.9327 TD 25 1010 -1 8 285
2000260N15308 2000 85 NA NA HELENE 2000-09-16 06:00:00 TS 15.8000 -54.4000 25 1010 hurdat_atl main 914 872 O_____________ hurdat_atl AL122000 15.8000 -54.4000 TD 25 1010 -1 11 283
2000260N15308 2000 85 NA NA HELENE 2000-09-16 09:00:00 TS 15.9422 -55.0526 main 864 825 P_____________ AL122000 15.9422 -55.0526 TD 27 1010 -1 15 282
2000260N15308 2000 85 NA NA HELENE 2000-09-16 12:00:00 TS 16.1000 -55.9000 30 1010 hurdat_atl main 818 758 O_____________ hurdat_atl AL122000 16.1000 -55.9000 TD 30 1010 -1 18 280
2000260N15308 2000 85 NA NA HELENE 2000-09-16 15:00:00 TS 16.2578 -56.9199 main 767 720 P_____________ AL122000 16.2578 -56.9199 TD 30 1010 -1 20 278
2000260N15308 2000 85 NA NA HELENE 2000-09-16 18:00:00 DS 16.4000 -58.0000 30 1010 hurdat_atl main 715 687 O_____________ hurdat_atl AL122000 16.4000 -58.0000 WV 30 1010 -3 20 278
2000260N15308 2000 85 NA NA HELENE 2000-09-16 21:00:00 DS 16.5220 -58.9725 main 684 641 P_____________ AL122000 16.5220 -58.9725 WV 30 1010 -3 18 276
2000260N15308 2000 85 NA NA HELENE 2000-09-17 00:00:00 DS 16.6000 -59.9000 30 1010 hurdat_atl main 630 539 O_____________ hurdat_atl AL122000 16.6000 -59.9000 WV 30 1010 -3 18 274
2000260N15308 2000 85 NA CS HELENE 2000-09-17 03:00:00 DS 16.6294 -60.8000 main 539 460 P_____________ AL122000 16.6294 -60.8000 WV 30 1010 -3 17 270
2000260N15308 2000 85 NA CS HELENE 2000-09-17 06:00:00 DS 16.6000 -61.7000 30 1010 hurdat_atl main 450 370 O_____________ hurdat_atl AL122000 16.6000 -61.7000 WV 30 1010 -3 18 265
2000260N15308 2000 85 NA CS HELENE 2000-09-17 09:00:00 DS 16.4771 -62.6357 main 370 300 P_____________ AL122000 16.4771 -62.6357 WV 30 1010 -3 18 264
2000260N15308 2000 85 NA CS HELENE 2000-09-17 12:00:00 DS 16.4000 -63.6000 30 1010 hurdat_atl main 292 210 O_____________ hurdat_atl AL122000 16.4000 -63.6000 WV 30 1010 -3 19 271
2000260N15308 2000 85 NA CS HELENE 2000-09-17 15:00:00 DS 16.5126 -64.6295 main 210 147 P_____________ AL122000 16.5126 -64.6295 WV 30 1010 -3 19 279
2000260N15308 2000 85 NA CS HELENE 2000-09-17 18:00:00 DS 16.7000 -65.6000 30 1010 hurdat_atl main 147 112 O_____________ hurdat_atl AL122000 16.7000 -65.6000 WV 30 1010 -3 17 282
2000260N15308 2000 85 NA CS HELENE 2000-09-17 21:00:00 DS 16.8642 -66.3800 main 113 100 P_____________ AL122000 16.8642 -66.3800 WV 30 1010 -3 15 282
2000260N15308 2000 85 NA CS HELENE 2000-09-18 00:00:00 DS 17.0000 -67.1000 30 1010 hurdat_atl main 101 99 O_____________ hurdat_atl AL122000 17.0000 -67.1000 WV 30 1010 -3 14 278
2000260N15308 2000 85 NA CS HELENE 2000-09-18 03:00:00 DS 17.0645 -67.8703 main 116 116 P_____________ AL122000 17.0645 -67.8703 WV 30 1010 -3 15 274
2000260N15308 2000 85 NA CS HELENE 2000-09-18 06:00:00 DS 17.1000 -68.7000 30 1010 hurdat_atl main 123 123 O_____________ hurdat_atl AL122000 17.1000 -68.7000 WV 30 1010 -3 17 273
2000260N15308 2000 85 NA CS HELENE 2000-09-18 09:00:00 DS 17.1424 -69.6277 main 138 105 P_____________ AL122000 17.1424 -69.6277 WV 30 1010 -3 18 273
2000260N15308 2000 85 NA CS HELENE 2000-09-18 12:00:00 DS 17.2000 -70.6000 30 1010 hurdat_atl main 95 33 O_____________ hurdat_atl AL122000 17.2000 -70.6000 WV 30 1010 -3 18 275
2000260N15308 2000 85 NA CS HELENE 2000-09-18 15:00:00 DS 17.2921 -71.5500 main 35 35 P_____________ AL122000 17.2921 -71.5500 WV 30 1010 -3 18 276
2000260N15308 2000 85 NA CS HELENE 2000-09-18 18:00:00 DS 17.4000 -72.5000 30 1010 hurdat_atl main 84 70 O_____________ hurdat_atl AL122000 17.4000 -72.5000 WV 30 1010 -3 18 275
2000260N15308 2000 85 NA CS HELENE 2000-09-18 21:00:00 DS 17.4621 -73.4507 main 64 54 P_____________ AL122000 17.4621 -73.4507 WV 30 1010 -3 18 276
2000260N15308 2000 85 NA CS HELENE 2000-09-19 00:00:00 DS 17.6000 -74.4000 30 1010 hurdat_atl main 69 69 O_____________ hurdat_atl AL122000 17.6000 -74.4000 WV 30 1010 -3 19 284
2000260N15308 2000 85 NA CS HELENE 2000-09-19 03:00:00 DS 17.9194 -75.3422 main 95 15 P_____________ AL122000 17.9194 -75.3422 WV 30 1010 -3 19 291
2000260N15308 2000 85 NA CS HELENE 2000-09-19 06:00:00 DS 18.3000 -76.3000 30 1010 hurdat_atl main 11 10 O_____________ hurdat_atl AL122000 18.3000 -76.3000 WV 30 1010 -3 20 290
2000260N15308 2000 85 NA CS HELENE 2000-09-19 09:00:00 DS 18.6153 -77.3450 main 22 22 P_____________ AL122000 18.6153 -77.3450 WV 30 1010 -3 20 288
2000260N15308 2000 85 NA CS HELENE 2000-09-19 12:00:00 DS 18.9000 -78.3000 30 1010 hurdat_atl main 55 55 O_____________ hurdat_atl AL122000 18.9000 -78.3000 WV 30 1010 -3 17 289
2000260N15308 2000 85 NA CS HELENE 2000-09-19 15:00:00 DS 19.1565 -78.9955 main 115 115 P_____________ AL122000 19.1565 -78.9955 WV 30 1010 -3 13 292
2000260N15308 2000 85 NA CS HELENE 2000-09-19 18:00:00 TS 19.4000 -79.6000 30 1010 hurdat_atl main 176 176 O_____________ hurdat_atl AL122000 19.4000 -79.6000 TD 30 1010 -1 13 291
2000260N15308 2000 85 NA CS HELENE 2000-09-19 21:00:00 TS 19.6271 -80.2781 main 236 221 P_____________ AL122000 19.6271 -80.2781 TD 30 1010 -1 14 291
2000260N15308 2000 85 NA CS HELENE 2000-09-20 00:00:00 TS 19.9000 -81.0000 30 1010 hurdat_atl main 226 176 O_____________ hurdat_atl AL122000 19.9000 -81.0000 TD 30 1010 -1 15 294
2000260N15308 2000 85 NA CS HELENE 2000-09-20 03:00:00 TS 20.2547 -81.7780 main 161 80 P_____________ AL122000 20.2547 -81.7780 TD 27 1010 -1 17 298
2000260N15308 2000 85 NA CS HELENE 2000-09-20 06:00:00 TS 20.7000 -82.6000 25 1010 hurdat_atl main 80 49 O_____________ hurdat_atl AL122000 20.7000 -82.6000 TD 25 1010 -1 19 301
2000260N15308 2000 85 NA CS HELENE 2000-09-20 09:00:00 TS 21.2203 -83.4873 main 61 11 P_____________ AL122000 21.2203 -83.4873 TD 25 1010 -1 19 305
2000260N15308 2000 85 NA CS HELENE 2000-09-20 12:00:00 TS 21.8000 -84.3000 25 1010 hurdat_atl main 11 0 O_____________ hurdat_atl AL122000 21.8000 -84.3000 TD 25 1010 -1 18 312
2000260N15308 2000 85 NA GM HELENE 2000-09-20 15:00:00 TS 22.4145 -84.9253 main 52 52 P_____________ AL122000 22.4145 -84.9253 TD 25 1010 -1 16 320
2000260N15308 2000 85 NA GM HELENE 2000-09-20 18:00:00 TS 23.0000 -85.4000 25 1010 hurdat_atl main 129 129 O_____________ hurdat_atl AL122000 23.0000 -85.4000 TD 25 1010 -1 13 323
2000260N15308 2000 85 NA GM HELENE 2000-09-20 21:00:00 TS 23.4648 -85.7957 main 196 196 P_____________ AL122000 23.4648 -85.7957 TD 25 1009 -1 11 325
2000260N15308 2000 85 NA GM HELENE 2000-09-21 00:00:00 TS 23.9000 -86.1000 25 1008 hurdat_atl main 248 248 O_____________ hurdat_atl AL122000 23.9000 -86.1000 TD 25 1008 -1 11 330
2000260N15308 2000 85 NA GM HELENE 2000-09-21 03:00:00 TS 24.3774 -86.3728 main 308 308 P_____________ AL122000 24.3774 -86.3728 TD 30 1007 -1 11 336
2000260N15308 2000 85 NA GM HELENE 2000-09-21 06:00:00 TS 24.9000 -86.6000 35 1007 hurdat_atl main 361 361 O_____________ hurdat_atl AL122000 24.9000 -86.6000 TS 35 1007 0 12 340
2000260N15308 2000 85 NA GM HELENE 2000-09-21 09:00:00 TS 25.5000 -86.8298 main 422 384 P_____________ AL122000 25.5000 -86.8298 TS 40 1006 0 13 343
2000260N15308 2000 85 NA GM HELENE 2000-09-21 12:00:00 TS 26.1000 -87.0000 45 1006 hurdat_atl main 384 332 O_____________ hurdat_atl AL122000 26.1000 -87.0000 TS 45 1006 0 11 349
2000260N15308 2000 85 NA GM HELENE 2000-09-21 15:00:00 TS 26.5924 -87.0729 main 332 288 P_____________ AL122000 26.5924 -87.0729 TS 52 1002 0 10 355
2000260N15308 2000 85 NA GM HELENE 2000-09-21 18:00:00 TS 27.1000 -87.1000 60 999 hurdat_atl main 288 235 O_____________ hurdat_atl AL122000 27.1000 -87.1000 TS 60 999 0 12 356
2000260N15308 2000 85 NA GM HELENE 2000-09-21 21:00:00 TS 27.7425 -87.1574 main 235 191 P_____________ AL122000 27.7425 -87.1574 TS 60 997 0 13 356
2000260N15308 2000 85 NA GM HELENE 2000-09-22 00:00:00 TS 28.4000 -87.2000 60 996 hurdat_atl main 191 156 O_____________ hurdat_atl AL122000 28.4000 -87.2000 TS 60 996 0 12 356
2000260N15308 2000 85 NA GM HELENE 2000-09-22 03:00:00 TS 28.9724 -87.2519 main 145 89 P_____________ AL122000 28.9724 -87.2519 TS 55 998 0 11 0
2000260N15308 2000 85 NA GM HELENE 2000-09-22 06:00:00 TS 29.5000 -87.2000 50 1001 hurdat_atl main 89 38 O_____________ hurdat_atl AL122000 29.5000 -87.2000 TS 50 1001 0 11 12
2000260N15308 2000 85 NA GM HELENE 2000-09-22 09:00:00 TS 29.9997 -86.9895 main 38 0 P_____________ AL122000 29.9997 -86.9895 TS 42 1003 0 11 27
2000260N15308 2000 85 NA NA HELENE 2000-09-22 12:00:00 TS 30.5000 -86.6000 35 1006 hurdat_atl main 0 0 O_____________ hurdat_atl AL122000 30.5000 -86.6000 L TS 35 1006 0 13 37
2000260N15308 2000 85 NA NA HELENE 2000-09-22 15:00:00 TS 31.0269 -86.0962 main 0 0 P_____________ AL122000 31.0269 -86.0962 TS 30 1008 -1 15 43
2000260N15308 2000 85 NA NA HELENE 2000-09-22 18:00:00 TS 31.6000 -85.4000 25 1010 hurdat_atl main 0 0 O_____________ hurdat_atl AL122000 31.6000 -85.4000 TD 25 1010 -1 19 47
2000260N15308 2000 85 NA NA HELENE 2000-09-22 21:00:00 TS 32.2805 -84.4966 main 0 0 P_____________ AL122000 32.2805 -84.4966 TD 25 1010 -1 21 51
2000260N15308 2000 85 NA NA HELENE 2000-09-23 00:00:00 TS 32.9000 -83.5000 25 1011 hurdat_atl main 0 0 O_____________ hurdat_atl AL122000 32.9000 -83.5000 TD 25 1011 -1 19 58
2000260N15308 2000 85 NA NA HELENE 2000-09-23 03:00:00 TS 33.2868 -82.5827 main 0 0 P_____________ AL122000 33.2868 -82.5827 TD 25 1011 -1 17 65
2000260N15308 2000 85 NA NA HELENE 2000-09-23 06:00:00 TS 33.6000 -81.7000 25 1012 hurdat_atl main 0 0 O_____________ hurdat_atl AL122000 33.6000 -81.7000 TD 25 1012 -1 16 64
2000260N15308 2000 85 NA NA HELENE 2000-09-23 09:00:00 TS 33.9763 -80.8635 main 0 0 P_____________ AL122000 33.9763 -80.8635 TD 25 1011 -1 16 60
2000260N15308 2000 85 NA NA HELENE 2000-09-23 12:00:00 TS 34.4000 -80.0000 25 1011 hurdat_atl main 0 0 O_____________ hurdat_atl AL122000 34.4000 -80.0000 TD 25 1011 -1 18 59
2000260N15308 2000 85 NA NA HELENE 2000-09-23 15:00:00 TS 34.8849 -79.0148 main 0 0 P_____________ AL122000 34.8849 -79.0148 TD 30 1010 -1 19 59
2000260N15308 2000 85 NA NA HELENE 2000-09-23 18:00:00 TS 35.4000 -78.0000 35 1010 hurdat_atl main 0 0 O_____________ hurdat_atl AL122000 35.4000 -78.0000 TS 35 1010 0 19 58
2000260N15308 2000 85 NA NA HELENE 2000-09-23 21:00:00 TS 35.9148 -77.0049 main 0 0 P_____________ AL122000 35.9148 -77.0049 TS 37 1009 0 18 57
2000260N15308 2000 85 NA NA HELENE 2000-09-24 00:00:00 TS 36.4000 -76.1000 40 1008 hurdat_atl main 0 0 O_____________ hurdat_atl AL122000 36.4000 -76.1000 TS 40 1008 0 16 55
2000260N15308 2000 85 NA NA HELENE 2000-09-24 03:00:00 TS 36.8126 -75.4197 main 49 49 P_____________ AL122000 36.8126 -75.4197 TS 42 1006 0 14 54
2000260N15308 2000 85 NA NA HELENE 2000-09-24 06:00:00 TS 37.2000 -74.7000 45 1005 hurdat_atl main 94 94 O_____________ hurdat_atl AL122000 37.2000 -74.7000 TS 45 1005 0 16 61
2000260N15308 2000 85 NA NA HELENE 2000-09-24 09:00:00 TS 37.5701 -73.6730 main 145 145 P_____________ AL122000 37.5701 -73.6730 TS 45 1003 0 19 65
2000260N15308 2000 85 NA NA HELENE 2000-09-24 12:00:00 TS 38.0000 -72.5000 45 1001 hurdat_atl main 226 226 O_____________ hurdat_atl AL122000 38.0000 -72.5000 TS 45 1001 0 21 61
2000260N15308 2000 85 NA NA HELENE 2000-09-24 15:00:00 TS 38.5894 -71.3818 main 265 259 P_____________ AL122000 38.5894 -71.3818 TS 45 999 0 22 57
2000260N15308 2000 85 NA NA HELENE 2000-09-24 18:00:00 TS 39.2000 -70.1000 45 997 hurdat_atl main 260 251 O_____________ hurdat_atl AL122000 39.2000 -70.1000 TS 45 997 0 24 64
2000260N15308 2000 85 NA NA HELENE 2000-09-24 21:00:00 TS 39.6232 -68.6060 main 261 259 P_____________ AL122000 39.6232 -68.6060 TS 50 995 0 27 71
2000260N15308 2000 85 NA NA HELENE 2000-09-25 00:00:00 TS 40.1000 -66.8000 55 993 hurdat_atl main 321 313 O_____________ hurdat_atl AL122000 40.1000 -66.8000 TS 55 993 0 31 70
2000260N15308 2000 85 NA NA HELENE 2000-09-25 03:00:00 TS 40.7283 -64.7392 main 315 297 P_____________ AL122000 40.7283 -64.7392 TS 57 989 0 38 67
2000260N15308 2000 85 NA NA HELENE 2000-09-25 06:00:00 TS 41.6000 -62.2000 60 986 hurdat_atl main 323 312 O_____________ hurdat_atl AL122000 41.6000 -62.2000 TS 60 986 0 47 65
2000260N15308 2000 85 NA NA HELENE 2000-09-25 09:00:00 TS 42.7585 -59.0136 main 314 314 P_____________ AL122000 42.7585 -59.0136 TS 57 987 0 55 64
2000260N15308 2000 85 NA NA HELENE 2000-09-25 12:00:00 TS 44.0000 -55.5000 55 988 hurdat_atl main 311 180 O_____________ hurdat_atl AL122000 44.0000 -55.5000 TS 55 988 0 55 65
2000260N15308 2000 85 NA NA HELENE 2000-09-25 15:00:00 TS 45.1132 -52.1118 main 187 185 P_____________ AL122000 45.1132 -52.1118 TS 50 989 0 52 66
2000260N15308 2000 85 NA NA HELENE 2000-09-25 18:00:00 TS 46.1000 -48.8000 45 990 hurdat_atl main 327 O_____________ hurdat_atl AL122000 46.1000 -48.8000 TS 45 990 0 50 67

IBTrACS Databaseについて

本データベースは、米国NOAAが公開する1842年以降の世界の熱帯低気圧のベストトラックデータアーカイブInternational Best Track Archive for Climate Stewardship (IBTrACS)を、ウェブで閲覧しやすい形式に変換したものです。

最終更新日:2021-10-21